sensor_id;sensor_type;location;lat;lon;timestamp;P1;P2;P0
83024;PMS5003;72839;53.326;-1.496;2023-09-19T00:02:24;0;0;
83024;PMS5003;72839;53.326;-1.496;2023-09-19T00:04:55;0;0;
83024;PMS5003;72839;53.326;-1.496;2023-09-19T00:07:43;0;0;
83024;PMS5003;72839;53.326;-1.496;2023-09-19T00:10:13;0;0;
83024;PMS5003;72839;53.326;-1.496;2023-09-19T00:12:42;0;0;
83024;PMS5003;72839;53.326;-1.496;2023-09-19T00:15:35;0;0;
83024;PMS5003;72839;53.326;-1.496;2023-09-19T00:18:13;0;0;
83024;PMS5003;72839;53.326;-1.496;2023-09-19T00:20:58;2;0;
83024;PMS5003;72839;53.326;-1.496;2023-09-19T00:23:33;0;0;
83024;PMS5003;72839;53.326;-1.496;2023-09-19T00:26:25;0;0;
83024;PMS5003;72839;53.326;-1.496;2023-09-19T00:29:10;0;0;
83024;PMS5003;72839;53.326;-1.496;2023-09-19T00:31:53;1;1;
83024;PMS5003;72839;53.326;-1.496;2023-09-19T00:34:32;1;0;
83024;PMS5003;72839;53.326;-1.496;2023-09-19T00:37:11;0;0;
83024;PMS5003;72839;53.326;-1.496;2023-09-19T00:40:30;0;0;
83024;PMS5003;72839;53.326;-1.496;2023-09-19T00:43:00;0;0;
83024;PMS5003;72839;53.326;-1.496;2023-09-19T00:45:26;0;0;
83024;PMS5003;72839;53.326;-1.496;2023-09-19T00:48:30;0;0;
83024;PMS5003;72839;53.326;-1.496;2023-09-19T00:51:15;1;1;
83024;PMS5003;72839;53.326;-1.496;2023-09-19T00:54:00;0;0;
83024;PMS5003;72839;53.326;-1.496;2023-09-19T00:56:51;0;0;
83024;PMS5003;72839;53.326;-1.496;2023-09-19T00:59:28;0;0;
83024;PMS5003;72839;53.326;-1.496;2023-09-19T01:02:27;0;0;
83024;PMS5003;72839;53.326;-1.496;2023-09-19T01:05:01;0;0;
83024;PMS5003;72839;53.326;-1.496;2023-09-19T01:07:34;0;0;
83024;PMS5003;72839;53.326;-1.496;2023-09-19T01:10:41;0;0;
83024;PMS5003;72839;53.326;-1.496;2023-09-19T01:13:16;0;0;
83024;PMS5003;72839;53.326;-1.496;2023-09-19T01:15:46;1;1;
83024;PMS5003;72839;53.326;-1.496;2023-09-19T01:18:35;0;0;
83024;PMS5003;72839;53.326;-1.496;2023-09-19T01:21:26;2;0;
83024;PMS5003;72839;53.326;-1.496;2023-09-19T01:29:29;0;0;
83024;PMS5003;72839;53.326;-1.496;2023-09-19T01:32:26;0;0;
83024;PMS5003;72839;53.326;-1.496;2023-09-19T01:35:26;1;0;
83024;PMS5003;72839;53.326;-1.496;2023-09-19T01:38:45;0;0;
83024;PMS5003;72839;53.326;-1.496;2023-09-19T01:41:14;0;0;
83024;PMS5003;72839;53.326;-1.496;2023-09-19T01:43:42;0;0;
83024;PMS5003;72839;53.326;-1.496;2023-09-19T01:46:12;0;0;
83024;PMS5003;72839;53.326;-1.496;2023-09-19T01:48:46;0;0;
83024;PMS5003;72839;53.326;-1.496;2023-09-19T01:51:10;0;0;
83024;PMS5003;72839;53.326;-1.496;2023-09-19T01:53:45;0;0;
83024;PMS5003;72839;53.326;-1.496;2023-09-19T01:56:30;0;0;
83024;PMS5003;72839;53.326;-1.496;2023-09-19T01:59:28;0;0;
83024;PMS5003;72839;53.326;-1.496;2023-09-19T02:02:21;7;0;
83024;PMS5003;72839;53.326;-1.496;2023-09-19T02:04:58;0;0;
83024;PMS5003;72839;53.326;-1.496;2023-09-19T02:07:46;0;0;
83024;PMS5003;72839;53.326;-1.496;2023-09-19T02:10:22;0;0;
83024;PMS5003;72839;53.326;-1.496;2023-09-19T02:13:22;0;0;
83024;PMS5003;72839;53.326;-1.496;2023-09-19T02:16:26;0;0;
83024;PMS5003;72839;53.326;-1.496;2023-09-19T02:18:55;0;0;
83024;PMS5003;72839;53.326;-1.496;2023-09-19T02:21:31;0;0;
83024;PMS5003;72839;53.326;-1.496;2023-09-19T02:23:58;0;0;
83024;PMS5003;72839;53.326;-1.496;2023-09-19T02:26:28;0;0;
83024;PMS5003;72839;53.326;-1.496;2023-09-19T02:28:58;2;0;
83024;PMS5003;72839;53.326;-1.496;2023-09-19T02:31:30;0;0;
83024;PMS5003;72839;53.326;-1.496;2023-09-19T02:34:01;0;0;
83024;PMS5003;72839;53.326;-1.496;2023-09-19T02:36:30;1;1;
83024;PMS5003;72839;53.326;-1.496;2023-09-19T02:38:59;0;0;
83024;PMS5003;72839;53.326;-1.496;2023-09-19T02:42:25;0;0;
83024;PMS5003;72839;53.326;-1.496;2023-09-19T02:46:45;0;0;
83024;PMS5003;72839;53.326;-1.496;2023-09-19T02:49:47;0;0;
83024;PMS5003;72839;53.326;-1.496;2023-09-19T02:53:34;0;0;
83024;PMS5003;72839;53.326;-1.496;2023-09-19T02:56:21;0;0;
83024;PMS5003;72839;53.326;-1.496;2023-09-19T02:58:50;0;0;
83024;PMS5003;72839;53.326;-1.496;2023-09-19T03:02:11;0;0;
83024;PMS5003;72839;53.326;-1.496;2023-09-19T03:04:59;1;1;
83024;PMS5003;72839;53.326;-1.496;2023-09-19T03:08:33;0;0;
83024;PMS5003;72839;53.326;-1.496;2023-09-19T03:11:14;0;0;
83024;PMS5003;72839;53.326;-1.496;2023-09-19T03:15:53;0;0;
83024;PMS5003;72839;53.326;-1.496;2023-09-19T03:18:21;1;1;
83024;PMS5003;72839;53.326;-1.496;2023-09-19T03:21:00;0;0;
83024;PMS5003;72839;53.326;-1.496;2023-09-19T03:23:51;0;0;
83024;PMS5003;72839;53.326;-1.496;2023-09-19T03:26:54;2;1;
83024;PMS5003;72839;53.326;-1.496;2023-09-19T03:29:33;0;0;
83024;PMS5003;72839;53.326;-1.496;2023-09-19T03:32:22;1;0;
83024;PMS5003;72839;53.326;-1.496;2023-09-19T03:34:58;1;1;
83024;PMS5003;72839;53.326;-1.496;2023-09-19T03:37:55;0;0;
83024;PMS5003;72839;53.326;-1.496;2023-09-19T03:40:48;0;0;
83024;PMS5003;72839;53.326;-1.496;2023-09-19T03:43:25;0;0;
83024;PMS5003;72839;53.326;-1.496;2023-09-19T03:46:01;2;0;
83024;PMS5003;72839;53.326;-1.496;2023-09-19T03:48:25;0;0;
83024;PMS5003;72839;53.326;-1.496;2023-09-19T03:51:50;1;1;
83024;PMS5003;72839;53.326;-1.496;2023-09-19T03:55:22;1;1;
83024;PMS5003;72839;53.326;-1.496;2023-09-19T03:58:32;0;0;
83024;PMS5003;72839;53.326;-1.496;2023-09-19T04:01:29;1;1;
83024;PMS5003;72839;53.326;-1.496;2023-09-19T04:03:55;0;0;
83024;PMS5003;72839;53.326;-1.496;2023-09-19T04:06:45;1;1;
83024;PMS5003;72839;53.326;-1.496;2023-09-19T04:09:15;0;0;
83024;PMS5003;72839;53.326;-1.496;2023-09-19T04:12:29;0;0;
83024;PMS5003;72839;53.326;-1.496;2023-09-19T04:16:17;0;0;
83024;PMS5003;72839;53.326;-1.496;2023-09-19T04:18:54;0;0;
83024;PMS5003;72839;53.326;-1.496;2023-09-19T04:21:21;0;0;
83024;PMS5003;72839;53.326;-1.496;2023-09-19T04:24:11;0;0;
83024;PMS5003;72839;53.326;-1.496;2023-09-19T04:26:45;0;0;
83024;PMS5003;72839;53.326;-1.496;2023-09-19T04:29:51;0;0;
83024;PMS5003;72839;53.326;-1.496;2023-09-19T04:32:20;0;0;
83024;PMS5003;72839;53.326;-1.496;2023-09-19T04:34:45;1;0;
83024;PMS5003;72839;53.326;-1.496;2023-09-19T04:37:19;0;0;
83024;PMS5003;72839;53.326;-1.496;2023-09-19T04:39:45;1;0;
83024;PMS5003;72839;53.326;-1.496;2023-09-19T04:42:53;0;0;
83024;PMS5003;72839;53.326;-1.496;2023-09-19T04:45:59;0;0;
83024;PMS5003;72839;53.326;-1.496;2023-09-19T04:48:31;1;1;
83024;PMS5003;72839;53.326;-1.496;2023-09-19T04:51:01;0;0;
83024;PMS5003;72839;53.326;-1.496;2023-09-19T04:53:28;0;0;
83024;PMS5003;72839;53.326;-1.496;2023-09-19T04:56:13;1;1;
83024;PMS5003;72839;53.326;-1.496;2023-09-19T04:58:46;1;0;
83024;PMS5003;72839;53.326;-1.496;2023-09-19T05:01:49;0;0;
83024;PMS5003;72839;53.326;-1.496;2023-09-19T05:05:05;1;1;
83024;PMS5003;72839;53.326;-1.496;2023-09-19T05:08:28;0;0;
83024;PMS5003;72839;53.326;-1.496;2023-09-19T05:11:47;0;0;
83024;PMS5003;72839;53.326;-1.496;2023-09-19T05:14:31;2;0;
83024;PMS5003;72839;53.326;-1.496;2023-09-19T05:18:47;1;1;
83024;PMS5003;72839;53.326;-1.496;2023-09-19T05:21:13;0;0;
83024;PMS5003;72839;53.326;-1.496;2023-09-19T05:25:23;2;1;
83024;PMS5003;72839;53.326;-1.496;2023-09-19T05:27:51;0;0;
83024;PMS5003;72839;53.326;-1.496;2023-09-19T05:30:29;0;0;
83024;PMS5003;72839;53.326;-1.496;2023-09-19T05:33:41;0;0;
83024;PMS5003;72839;53.326;-1.496;2023-09-19T05:36:36;0;0;
83024;PMS5003;72839;53.326;-1.496;2023-09-19T05:40:42;0;0;
83024;PMS5003;72839;53.326;-1.496;2023-09-19T05:43:29;0;0;
83024;PMS5003;72839;53.326;-1.496;2023-09-19T05:48:43;3;3;
83024;PMS5003;72839;53.326;-1.496;2023-09-19T05:51:12;1;1;
83024;PMS5003;72839;53.326;-1.496;2023-09-19T05:54:33;1;0;
83024;PMS5003;72839;53.326;-1.496;2023-09-19T05:57:18;0;0;
83024;PMS5003;72839;53.326;-1.496;2023-09-19T05:59:51;0;0;
83024;PMS5003;72839;53.326;-1.496;2023-09-19T06:03:28;0;0;
83024;PMS5003;72839;53.326;-1.496;2023-09-19T06:06:47;0;0;
83024;PMS5003;72839;53.326;-1.496;2023-09-19T06:09:25;0;0;
83024;PMS5003;72839;53.326;-1.496;2023-09-19T06:12:37;0;0;
83024;PMS5003;72839;53.326;-1.496;2023-09-19T06:16:37;0;0;
83024;PMS5003;72839;53.326;-1.496;2023-09-19T06:19:31;1;0;
83024;PMS5003;72839;53.326;-1.496;2023-09-19T06:22:31;0;0;
83024;PMS5003;72839;53.326;-1.496;2023-09-19T06:26:00;0;0;
83024;PMS5003;72839;53.326;-1.496;2023-09-19T06:28:26;0;0;
83024;PMS5003;72839;53.326;-1.496;2023-09-19T06:31:01;3;0;
83024;PMS5003;72839;53.326;-1.496;2023-09-19T06:34:12;1;1;
83024;PMS5003;72839;53.326;-1.496;2023-09-19T06:36:41;0;0;
83024;PMS5003;72839;53.326;-1.496;2023-09-19T06:40:10;0;0;
83024;PMS5003;72839;53.326;-1.496;2023-09-19T06:42:51;0;0;
83024;PMS5003;72839;53.326;-1.496;2023-09-19T06:45:38;0;0;
83024;PMS5003;72839;53.326;-1.496;2023-09-19T06:48:13;0;0;
83024;PMS5003;72839;53.326;-1.496;2023-09-19T06:52:46;0;0;
83024;PMS5003;72839;53.326;-1.496;2023-09-19T06:55:41;0;0;
83024;PMS5003;72839;53.326;-1.496;2023-09-19T06:58:49;1;1;
83024;PMS5003;72839;53.326;-1.496;2023-09-19T07:01:42;0;0;
83024;PMS5003;72839;53.326;-1.496;2023-09-19T07:04:29;1;1;
83024;PMS5003;72839;53.326;-1.496;2023-09-19T07:08:15;1;1;
83024;PMS5003;72839;53.326;-1.496;2023-09-19T07:10:42;1;1;
83024;PMS5003;72839;53.326;-1.496;2023-09-19T07:13:17;1;1;
83024;PMS5003;72839;53.326;-1.496;2023-09-19T07:17:01;0;0;
83024;PMS5003;72839;53.326;-1.496;2023-09-19T07:21:14;2;1;
83024;PMS5003;72839;53.326;-1.496;2023-09-19T07:23:44;1;1;
83024;PMS5003;72839;53.326;-1.496;2023-09-19T07:26:32;1;1;
83024;PMS5003;72839;53.326;-1.496;2023-09-19T07:29:58;0;0;
83024;PMS5003;72839;53.326;-1.496;2023-09-19T07:32:37;2;1;
83024;PMS5003;72839;53.326;-1.496;2023-09-19T07:35:47;2;2;
83024;PMS5003;72839;53.326;-1.496;2023-09-19T07:38:29;2;2;
83024;PMS5003;72839;53.326;-1.496;2023-09-19T07:41:36;1;1;
83024;PMS5003;72839;53.326;-1.496;2023-09-19T07:45:00;3;3;
83024;PMS5003;72839;53.326;-1.496;2023-09-19T07:48:33;1;1;
83024;PMS5003;72839;53.326;-1.496;2023-09-19T07:51:11;1;1;
83024;PMS5003;72839;53.326;-1.496;2023-09-19T07:53:39;0;0;
83024;PMS5003;72839;53.326;-1.496;2023-09-19T07:56:35;2;2;
83024;PMS5003;72839;53.326;-1.496;2023-09-19T07:59:22;6;6;
83024;PMS5003;72839;53.326;-1.496;2023-09-19T08:02:05;20;20;
83024;PMS5003;72839;53.326;-1.496;2023-09-19T08:04:31;26;26;
83024;PMS5003;72839;53.326;-1.496;2023-09-19T08:08:24;19;18;
83024;PMS5003;72839;53.326;-1.496;2023-09-19T08:10:52;25;23;
83024;PMS5003;72839;53.326;-1.496;2023-09-19T08:15:30;26;26;
83024;PMS5003;72839;53.326;-1.496;2023-09-19T08:18:03;18;18;
83024;PMS5003;72839;53.326;-1.496;2023-09-19T08:20:40;22;20;
83024;PMS5003;72839;53.326;-1.496;2023-09-19T08:23:27;17;16;
83024;PMS5003;72839;53.326;-1.496;2023-09-19T08:26:25;19;19;
83024;PMS5003;72839;53.326;-1.496;2023-09-19T08:28:56;21;20;
83024;PMS5003;72839;53.326;-1.496;2023-09-19T08:31:40;16;16;
83024;PMS5003;72839;53.326;-1.496;2023-09-19T08:34:22;21;21;
83024;PMS5003;72839;53.326;-1.496;2023-09-19T08:37:16;18;18;
83024;PMS5003;72839;53.326;-1.496;2023-09-19T08:39:52;15;15;
83024;PMS5003;72839;53.326;-1.496;2023-09-19T08:43:35;14;14;
83024;PMS5003;72839;53.326;-1.496;2023-09-19T08:47:34;17;17;
83024;PMS5003;72839;53.326;-1.496;2023-09-19T08:50:25;11;11;
83024;PMS5003;72839;53.326;-1.496;2023-09-19T08:52:55;13;12;
83024;PMS5003;72839;53.326;-1.496;2023-09-19T08:55:32;14;13;
83024;PMS5003;72839;53.326;-1.496;2023-09-19T08:58:25;13;13;
83024;PMS5003;72839;53.326;-1.496;2023-09-19T09:01:01;11;11;
83024;PMS5003;72839;53.326;-1.496;2023-09-19T09:03:40;4;4;
83024;PMS5003;72839;53.326;-1.496;2023-09-19T09:06:30;6;6;
83024;PMS5003;72839;53.326;-1.496;2023-09-19T09:09:00;12;10;
83024;PMS5003;72839;53.326;-1.496;2023-09-19T09:12:22;8;8;
83024;PMS5003;72839;53.326;-1.496;2023-09-19T09:14:52;10;10;
83024;PMS5003;72839;53.326;-1.496;2023-09-19T09:17:42;14;12;
83024;PMS5003;72839;53.326;-1.496;2023-09-19T09:20:33;9;9;
83024;PMS5003;72839;53.326;-1.496;2023-09-19T09:25:04;10;10;
83024;PMS5003;72839;53.326;-1.496;2023-09-19T09:27:31;8;8;
83024;PMS5003;72839;53.326;-1.496;2023-09-19T09:30:00;3;3;
83024;PMS5003;72839;53.326;-1.496;2023-09-19T09:32:32;7;7;
83024;PMS5003;72839;53.326;-1.496;2023-09-19T09:38:44;13;13;
83024;PMS5003;72839;53.326;-1.496;2023-09-19T09:41:50;9;9;
83024;PMS5003;72839;53.326;-1.496;2023-09-19T09:44:16;9;8;
83024;PMS5003;72839;53.326;-1.496;2023-09-19T09:47:02;9;9;
83024;PMS5003;72839;53.326;-1.496;2023-09-19T09:49:32;15;11;
83024;PMS5003;72839;53.326;-1.496;2023-09-19T09:53:20;5;5;
83024;PMS5003;72839;53.326;-1.496;2023-09-19T09:56:34;10;10;
83024;PMS5003;72839;53.326;-1.496;2023-09-19T09:59:15;9;9;
83024;PMS5003;72839;53.326;-1.496;2023-09-19T10:01:48;7;7;
83024;PMS5003;72839;53.326;-1.496;2023-09-19T10:04:27;7;7;
83024;PMS5003;72839;53.326;-1.496;2023-09-19T10:07:25;5;5;
83024;PMS5003;72839;53.326;-1.496;2023-09-19T10:10:31;5;5;
83024;PMS5003;72839;53.326;-1.496;2023-09-19T10:12:51;5;5;
83024;PMS5003;72839;53.326;-1.496;2023-09-19T10:15:48;4;4;
83024;PMS5003;72839;53.326;-1.496;2023-09-19T10:18:31;4;4;
83024;PMS5003;72839;53.326;-1.496;2023-09-19T10:21:43;4;4;
83024;PMS5003;72839;53.326;-1.496;2023-09-19T10:24:42;7;7;
83024;PMS5003;72839;53.326;-1.496;2023-09-19T10:27:18;6;6;
83024;PMS5003;72839;53.326;-1.496;2023-09-19T10:30:01;4;4;
83024;PMS5003;72839;53.326;-1.496;2023-09-19T10:32:31;5;5;
83024;PMS5003;72839;53.326;-1.496;2023-09-19T10:35:05;6;6;
83024;PMS5003;72839;53.326;-1.496;2023-09-19T10:37:31;4;4;
83024;PMS5003;72839;53.326;-1.496;2023-09-19T10:40:48;6;6;
83024;PMS5003;72839;53.326;-1.496;2023-09-19T10:43:17;3;3;
83024;PMS5003;72839;53.326;-1.496;2023-09-19T10:45:50;1;1;
83024;PMS5003;72839;53.326;-1.496;2023-09-19T10:48:16;5;5;
83024;PMS5003;72839;53.326;-1.496;2023-09-19T10:50:48;5;5;
83024;PMS5003;72839;53.326;-1.496;2023-09-19T10:53:29;4;4;
83024;PMS5003;72839;53.326;-1.496;2023-09-19T10:56:53;2;2;
83024;PMS5003;72839;53.326;-1.496;2023-09-19T10:59:26;6;5;
83024;PMS5003;72839;53.326;-1.496;2023-09-19T11:01:57;2;2;
83024;PMS5003;72839;53.326;-1.496;2023-09-19T11:04:44;4;4;
83024;PMS5003;72839;53.326;-1.496;2023-09-19T11:10:03;4;4;
83024;PMS5003;72839;53.326;-1.496;2023-09-19T11:12:51;4;4;
83024;PMS5003;72839;53.326;-1.496;2023-09-19T11:18:03;1;1;
83024;PMS5003;72839;53.326;-1.496;2023-09-19T11:23:27;6;4;
83024;PMS5003;72839;53.326;-1.496;2023-09-19T11:25:57;4;4;
83024;PMS5003;72839;53.326;-1.496;2023-09-19T11:29:00;2;2;
83024;PMS5003;72839;53.326;-1.496;2023-09-19T11:31:45;3;3;
83024;PMS5003;72839;53.326;-1.496;2023-09-19T11:34:46;3;3;
83024;PMS5003;72839;53.326;-1.496;2023-09-19T11:38:01;4;4;
83024;PMS5003;72839;53.326;-1.496;2023-09-19T11:40:56;2;2;
83024;PMS5003;72839;53.326;-1.496;2023-09-19T11:43:28;2;2;
83024;PMS5003;72839;53.326;-1.496;2023-09-19T11:46:03;2;2;
83024;PMS5003;72839;53.326;-1.496;2023-09-19T11:48:43;4;4;
83024;PMS5003;72839;53.326;-1.496;2023-09-19T11:53:22;7;4;
83024;PMS5003;72839;53.326;-1.496;2023-09-19T11:56:38;3;3;
83024;PMS5003;72839;53.326;-1.496;2023-09-19T11:59:43;2;2;
83024;PMS5003;72839;53.326;-1.496;2023-09-19T12:02:37;2;2;
83024;PMS5003;72839;53.326;-1.496;2023-09-19T12:05:08;3;3;
83024;PMS5003;72839;53.326;-1.496;2023-09-19T12:13:36;2;2;
83024;PMS5003;72839;53.326;-1.496;2023-09-19T12:16:26;2;2;
83024;PMS5003;72839;53.326;-1.496;2023-09-19T12:22:22;1;1;
83024;PMS5003;72839;53.326;-1.496;2023-09-19T12:25:26;0;0;
83024;PMS5003;72839;53.326;-1.496;2023-09-19T12:28:58;3;2;
83024;PMS5003;72839;53.326;-1.496;2023-09-19T12:32:01;1;1;
83024;PMS5003;72839;53.326;-1.496;2023-09-19T12:34:42;2;2;
83024;PMS5003;72839;53.326;-1.496;2023-09-19T12:37:42;2;1;
83024;PMS5003;72839;53.326;-1.496;2023-09-19T12:40:42;0;0;
83024;PMS5003;72839;53.326;-1.496;2023-09-19T12:43:25;1;1;
83024;PMS5003;72839;53.326;-1.496;2023-09-19T12:45:51;2;2;
83024;PMS5003;72839;53.326;-1.496;2023-09-19T12:48:36;2;2;
83024;PMS5003;72839;53.326;-1.496;2023-09-19T12:51:19;0;0;
83024;PMS5003;72839;53.326;-1.496;2023-09-19T12:54:13;1;1;
83024;PMS5003;72839;53.326;-1.496;2023-09-19T12:56:52;2;2;
83024;PMS5003;72839;53.326;-1.496;2023-09-19T12:59:27;1;1;
83024;PMS5003;72839;53.326;-1.496;2023-09-19T13:02:31;0;0;
83024;PMS5003;72839;53.326;-1.496;2023-09-19T13:10:01;0;0;
83024;PMS5003;72839;53.326;-1.496;2023-09-19T13:12:37;1;1;
83024;PMS5003;72839;53.326;-1.496;2023-09-19T13:16:14;1;1;
83024;PMS5003;72839;53.326;-1.496;2023-09-19T13:18:51;0;0;
83024;PMS5003;72839;53.326;-1.496;2023-09-19T13:21:28;0;0;
83024;PMS5003;72839;53.326;-1.496;2023-09-19T13:23:53;1;1;
83024;PMS5003;72839;53.326;-1.496;2023-09-19T13:26:27;1;1;
83024;PMS5003;72839;53.326;-1.496;2023-09-19T13:29:16;0;0;
83024;PMS5003;72839;53.326;-1.496;2023-09-19T13:33:04;2;2;
83024;PMS5003;72839;53.326;-1.496;2023-09-19T13:35:50;0;0;
83024;PMS5003;72839;53.326;-1.496;2023-09-19T13:38:17;0;0;
83024;PMS5003;72839;53.326;-1.496;2023-09-19T13:42:08;0;0;
83024;PMS5003;72839;53.326;-1.496;2023-09-19T13:44:47;1;1;
83024;PMS5003;72839;53.326;-1.496;2023-09-19T13:47:35;0;0;
83024;PMS5003;72839;53.326;-1.496;2023-09-19T13:50:43;1;1;
83024;PMS5003;72839;53.326;-1.496;2023-09-19T13:53:12;0;0;
83024;PMS5003;72839;53.326;-1.496;2023-09-19T13:55:47;1;1;
83024;PMS5003;72839;53.326;-1.496;2023-09-19T13:58:35;0;0;
83024;PMS5003;72839;53.326;-1.496;2023-09-19T14:01:51;0;0;
83024;PMS5003;72839;53.326;-1.496;2023-09-19T14:04:25;2;2;
83024;PMS5003;72839;53.326;-1.496;2023-09-19T14:06:51;0;0;
83024;PMS5003;72839;53.326;-1.496;2023-09-19T14:10:14;1;1;
83024;PMS5003;72839;53.326;-1.496;2023-09-19T14:12:40;0;0;
83024;PMS5003;72839;53.326;-1.496;2023-09-19T14:16:25;0;0;
83024;PMS5003;72839;53.326;-1.496;2023-09-19T14:18:55;0;0;
83024;PMS5003;72839;53.326;-1.496;2023-09-19T14:23:29;0;0;
83024;PMS5003;72839;53.326;-1.496;2023-09-19T14:26:04;1;1;
83024;PMS5003;72839;53.326;-1.496;2023-09-19T14:29:09;0;0;
83024;PMS5003;72839;53.326;-1.496;2023-09-19T14:31:48;1;0;
83024;PMS5003;72839;53.326;-1.496;2023-09-19T14:34:56;0;0;
83024;PMS5003;72839;53.326;-1.496;2023-09-19T14:37:24;0;0;
83024;PMS5003;72839;53.326;-1.496;2023-09-19T14:39:50;0;0;
83024;PMS5003;72839;53.326;-1.496;2023-09-19T14:43:30;0;0;
83024;PMS5003;72839;53.326;-1.496;2023-09-19T14:46:18;0;0;
83024;PMS5003;72839;53.326;-1.496;2023-09-19T14:49:16;1;0;
83024;PMS5003;72839;53.326;-1.496;2023-09-19T14:53:36;0;0;
83024;PMS5003;72839;53.326;-1.496;2023-09-19T14:57:39;1;1;
83024;PMS5003;72839;53.326;-1.496;2023-09-19T15:00:08;0;0;
83024;PMS5003;72839;53.326;-1.496;2023-09-19T15:02:36;2;0;
83024;PMS5003;72839;53.326;-1.496;2023-09-19T15:05:08;0;0;
83024;PMS5003;72839;53.326;-1.496;2023-09-19T15:09:16;1;1;
83024;PMS5003;72839;53.326;-1.496;2023-09-19T15:12:55;0;0;
83024;PMS5003;72839;53.326;-1.496;2023-09-19T15:15:28;0;0;
83024;PMS5003;72839;53.326;-1.496;2023-09-19T15:18:00;0;0;
83024;PMS5003;72839;53.326;-1.496;2023-09-19T15:20:32;0;0;
83024;PMS5003;72839;53.326;-1.496;2023-09-19T15:23:01;0;0;
83024;PMS5003;72839;53.326;-1.496;2023-09-19T15:25:34;0;0;
83024;PMS5003;72839;53.326;-1.496;2023-09-19T15:28:31;0;0;
83024;PMS5003;72839;53.326;-1.496;2023-09-19T15:31:49;0;0;
83024;PMS5003;72839;53.326;-1.496;2023-09-19T15:35:02;0;0;
83024;PMS5003;72839;53.326;-1.496;2023-09-19T15:39:30;1;1;
83024;PMS5003;72839;53.326;-1.496;2023-09-19T15:42:50;0;0;
83024;PMS5003;72839;53.326;-1.496;2023-09-19T15:45:16;1;1;
83024;PMS5003;72839;53.326;-1.496;2023-09-19T15:48:33;0;0;
83024;PMS5003;72839;53.326;-1.496;2023-09-19T15:51:05;0;0;
83024;PMS5003;72839;53.326;-1.496;2023-09-19T15:54:30;0;0;
83024;PMS5003;72839;53.326;-1.496;2023-09-19T15:57:45;1;1;
83024;PMS5003;72839;53.326;-1.496;2023-09-19T16:01:12;2;0;
83024;PMS5003;72839;53.326;-1.496;2023-09-19T16:04:45;0;0;
83024;PMS5003;72839;53.326;-1.496;2023-09-19T16:07:48;0;0;
83024;PMS5003;72839;53.326;-1.496;2023-09-19T16:10:33;0;0;
83024;PMS5003;72839;53.326;-1.496;2023-09-19T16:14:12;2;1;
83024;PMS5003;72839;53.326;-1.496;2023-09-19T16:17:24;0;0;
83024;PMS5003;72839;53.326;-1.496;2023-09-19T16:21:07;0;0;
83024;PMS5003;72839;53.326;-1.496;2023-09-19T16:24:36;0;0;
83024;PMS5003;72839;53.326;-1.496;2023-09-19T16:27:41;1;1;
83024;PMS5003;72839;53.326;-1.496;2023-09-19T16:30:07;0;0;
83024;PMS5003;72839;53.326;-1.496;2023-09-19T16:32:34;0;0;
83024;PMS5003;72839;53.326;-1.496;2023-09-19T16:35:01;1;1;
83024;PMS5003;72839;53.326;-1.496;2023-09-19T16:39:55;15;14;
83024;PMS5003;72839;53.326;-1.496;2023-09-19T16:43:56;76;68;
83024;PMS5003;72839;53.326;-1.496;2023-09-19T16:47:20;119;110;
83024;PMS5003;72839;53.326;-1.496;2023-09-19T16:50:58;112;106;
83024;PMS5003;72839;53.326;-1.496;2023-09-19T16:53:38;104;98;
83024;PMS5003;72839;53.326;-1.496;2023-09-19T16:56:53;96;94;
83024;PMS5003;72839;53.326;-1.496;2023-09-19T16:59:44;87;85;
83024;PMS5003;72839;53.326;-1.496;2023-09-19T17:03:12;89;85;
83024;PMS5003;72839;53.326;-1.496;2023-09-19T17:05:42;96;94;
83024;PMS5003;72839;53.326;-1.496;2023-09-19T17:08:51;66;66;
83024;PMS5003;72839;53.326;-1.496;2023-09-19T17:12:42;87;79;
83024;PMS5003;72839;53.326;-1.496;2023-09-19T17:15:08;78;77;
83024;PMS5003;72839;53.326;-1.496;2023-09-19T17:17:33;59;59;
83024;PMS5003;72839;53.326;-1.496;2023-09-19T17:19:58;74;69;
83024;PMS5003;72839;53.326;-1.496;2023-09-19T17:22:26;70;65;
83024;PMS5003;72839;53.326;-1.496;2023-09-19T17:24:51;72;69;
83024;PMS5003;72839;53.326;-1.496;2023-09-19T17:27:16;63;62;
83024;PMS5003;72839;53.326;-1.496;2023-09-19T17:29:42;67;65;
83024;PMS5003;72839;53.326;-1.496;2023-09-19T17:32:13;51;48;
83024;PMS5003;72839;53.326;-1.496;2023-09-19T17:34:38;52;48;
83024;PMS5003;72839;53.326;-1.496;2023-09-19T17:37:04;55;51;
83024;PMS5003;72839;53.326;-1.496;2023-09-19T17:39:31;49;46;
83024;PMS5003;72839;53.326;-1.496;2023-09-19T17:41:56;56;55;
83024;PMS5003;72839;53.326;-1.496;2023-09-19T17:44:34;52;52;
83024;PMS5003;72839;53.326;-1.496;2023-09-19T17:47:26;38;38;
83024;PMS5003;72839;53.326;-1.496;2023-09-19T17:50:45;43;41;
83024;PMS5003;72839;53.326;-1.496;2023-09-19T17:53:13;40;38;
83024;PMS5003;72839;53.326;-1.496;2023-09-19T17:56:33;44;42;
83024;PMS5003;72839;53.326;-1.496;2023-09-19T18:00:46;42;40;
83024;PMS5003;72839;53.326;-1.496;2023-09-19T18:03:48;44;43;
83024;PMS5003;72839;53.326;-1.496;2023-09-19T18:06:42;38;37;
83024;PMS5003;72839;53.326;-1.496;2023-09-19T18:10:09;30;26;
83024;PMS5003;72839;53.326;-1.496;2023-09-19T18:12:41;35;34;
83024;PMS5003;72839;53.326;-1.496;2023-09-19T18:15:07;26;26;
83024;PMS5003;72839;53.326;-1.496;2023-09-19T18:17:58;28;27;
83024;PMS5003;72839;53.326;-1.496;2023-09-19T18:21:03;31;31;
83024;PMS5003;72839;53.326;-1.496;2023-09-19T18:24:44;31;29;
83024;PMS5003;72839;53.326;-1.496;2023-09-19T18:27:38;27;27;
83024;PMS5003;72839;53.326;-1.496;2023-09-19T18:30:27;27;27;
83024;PMS5003;72839;53.326;-1.496;2023-09-19T18:33:46;28;26;
83024;PMS5003;72839;53.326;-1.496;2023-09-19T18:37:48;18;18;
83024;PMS5003;72839;53.326;-1.496;2023-09-19T18:40:18;21;21;
83024;PMS5003;72839;53.326;-1.496;2023-09-19T18:42:49;20;20;
83024;PMS5003;72839;53.326;-1.496;2023-09-19T18:45:19;21;21;
83024;PMS5003;72839;53.326;-1.496;2023-09-19T18:49:05;27;27;
83024;PMS5003;72839;53.326;-1.496;2023-09-19T18:54:04;12;12;
83024;PMS5003;72839;53.326;-1.496;2023-09-19T18:56:43;14;14;
83024;PMS5003;72839;53.326;-1.496;2023-09-19T18:59:26;14;14;
83024;PMS5003;72839;53.326;-1.496;2023-09-19T19:02:01;16;16;
83024;PMS5003;72839;53.326;-1.496;2023-09-19T19:05:33;9;9;
83024;PMS5003;72839;53.326;-1.496;2023-09-19T19:12:01;12;12;
83024;PMS5003;72839;53.326;-1.496;2023-09-19T19:14:50;17;17;
83024;PMS5003;72839;53.326;-1.496;2023-09-19T19:17:18;16;16;
83024;PMS5003;72839;53.326;-1.496;2023-09-19T19:20:31;15;15;
83024;PMS5003;72839;53.326;-1.496;2023-09-19T19:22:59;10;10;
83024;PMS5003;72839;53.326;-1.496;2023-09-19T19:29:17;10;9;
83024;PMS5003;72839;53.326;-1.496;2023-09-19T19:31:54;8;8;
83024;PMS5003;72839;53.326;-1.496;2023-09-19T19:34:40;10;10;
83024;PMS5003;72839;53.326;-1.496;2023-09-19T19:39:12;7;7;
83024;PMS5003;72839;53.326;-1.496;2023-09-19T19:41:52;13;11;
83024;PMS5003;72839;53.326;-1.496;2023-09-19T19:44:19;10;9;
83024;PMS5003;72839;53.326;-1.496;2023-09-19T19:47:05;11;11;
83024;PMS5003;72839;53.326;-1.496;2023-09-19T19:50:22;7;7;
83024;PMS5003;72839;53.326;-1.496;2023-09-19T19:54:25;8;8;
83024;PMS5003;72839;53.326;-1.496;2023-09-19T19:57:00;8;8;
83024;PMS5003;72839;53.326;-1.496;2023-09-19T19:59:30;6;6;
83024;PMS5003;72839;53.326;-1.496;2023-09-19T20:03:27;8;6;
83024;PMS5003;72839;53.326;-1.496;2023-09-19T20:06:14;8;8;
83024;PMS5003;72839;53.326;-1.496;2023-09-19T20:09:28;7;6;
83024;PMS5003;72839;53.326;-1.496;2023-09-19T20:12:08;5;5;
83024;PMS5003;72839;53.326;-1.496;2023-09-19T20:15:53;6;6;